createdAt,value
2023-04-08T00:02:11.495Z,98929.97
2023-04-08T00:05:14.342Z,98929.91
2023-04-08T00:08:15.998Z,98928.28
2023-04-08T00:11:18.947Z,98937.16
2023-04-08T00:14:20.534Z,98935.41
2023-04-08T00:17:22.188Z,98933.63
2023-04-08T00:20:24.213Z,98941.66
2023-04-08T00:23:25.828Z,98944.28
2023-04-08T00:26:28.917Z,98937.19
2023-04-08T00:29:31.019Z,98937.81
2023-04-08T00:32:33.108Z,98940.44
2023-04-08T00:35:34.874Z,98935.97
2023-04-08T00:38:36.479Z,98933.56
2023-04-08T00:41:39.701Z,98930.16
2023-04-08T00:44:41.314Z,98934.47
2023-04-08T00:47:43.899Z,98938.84
2023-04-08T00:50:47.095Z,98945.81
2023-04-08T00:53:48.735Z,98941.38
2023-04-08T00:56:51.972Z,98944.09
2023-04-08T00:59:53.792Z,98934.25
2023-04-08T01:03:00.504Z,98937.06
2023-04-08T01:06:07.114Z,98932.00
2023-04-08T01:09:09.344Z,98933.88
2023-04-08T01:12:15.974Z,98933.66
2023-04-08T01:15:17.829Z,98930.06
2023-04-08T01:18:20.962Z,98932.66
2023-04-08T01:21:23.755Z,98932.56
2023-04-08T01:24:28.223Z,98927.50
2023-04-08T01:27:33.305Z,98920.47
2023-04-08T01:30:36.734Z,98926.63
2023-04-08T01:33:38.574Z,98929.34
2023-04-08T01:36:40.868Z,98926.13
2023-04-08T01:39:42.959Z,98927.84
2023-04-08T01:42:49.744Z,98927.75
2023-04-08T01:45:54.672Z,98921.63
2023-04-08T01:48:57.659Z,98927.84
2023-04-08T01:52:00.732Z,98921.72
2023-04-08T01:55:02.561Z,98933.09
2023-04-08T01:58:08.300Z,98930.41
2023-04-08T02:01:11.526Z,98931.25
2023-04-08T02:04:13.665Z,98928.72
2023-04-08T02:07:15.787Z,98920.00
2023-04-08T02:10:17.659Z,98934.13
2023-04-08T02:13:20.652Z,98936.81
2023-04-08T02:16:23.968Z,98940.38
2023-04-08T02:19:29.488Z,98933.63
2023-04-08T02:22:38.173Z,98939.84
2023-04-08T02:25:40.725Z,98933.56
2023-04-08T02:28:44.728Z,98930.94
2023-04-08T02:31:47.050Z,98931.09
2023-04-08T02:34:50.363Z,98931.91
2023-04-08T02:37:52.430Z,98931.09
2023-04-08T02:40:54.408Z,98932.09
2023-04-08T02:43:58.671Z,98934.84
2023-04-08T02:47:00.334Z,98929.47
2023-04-08T02:50:01.936Z,98936.50
2023-04-08T02:53:04.049Z,98949.81
2023-04-08T02:56:09.904Z,98941.06
2023-04-08T02:59:12.982Z,98957.06
2023-04-08T03:02:14.665Z,98957.22
2023-04-08T03:05:16.966Z,98949.34
2023-04-08T03:08:18.611Z,98955.47
2023-04-08T03:11:21.565Z,98958.09
2023-04-08T03:14:24.661Z,98951.94
2023-04-08T03:17:26.479Z,98955.47
2023-04-08T03:20:28.182Z,98958.00
2023-04-08T03:23:30.078Z,98956.22
2023-04-08T03:26:31.774Z,98953.66
2023-04-08T03:29:34.784Z,98949.28
2023-04-08T03:32:36.538Z,98958.09
2023-04-08T03:35:38.924Z,98950.91
2023-04-08T03:38:40.855Z,98951.75
2023-04-08T03:41:42.513Z,98956.19
2023-04-08T03:44:45.560Z,98967.59
2023-04-08T03:47:47.433Z,98962.44
2023-04-08T03:50:49.192Z,98960.81
2023-04-08T03:53:50.731Z,98957.41
2023-04-08T03:56:52.426Z,98964.44
2023-04-08T03:59:55.595Z,98954.84
2023-04-08T04:02:57.253Z,98960.22
2023-04-08T04:05:58.841Z,98959.28
2023-04-08T04:09:00.507Z,98958.38
2023-04-08T04:12:02.390Z,98952.34
2023-04-08T04:15:06.312Z,98955.97
2023-04-08T04:18:08.562Z,98967.34
2023-04-08T04:21:10.655Z,98967.28
2023-04-08T04:24:14.267Z,98971.72
2023-04-08T04:27:17.671Z,98978.72
2023-04-08T04:30:20.709Z,98977.84
2023-04-08T04:33:22.390Z,98970.72
2023-04-08T04:36:24.294Z,98979.44
2023-04-08T04:39:26.376Z,98983.06
2023-04-08T04:42:28.046Z,98988.22
2023-04-08T04:45:31.709Z,98984.69
2023-04-08T04:48:33.320Z,99000.38
2023-04-08T04:51:34.996Z,98990.69
2023-04-08T04:54:36.810Z,98994.31
2023-04-08T04:57:38.575Z,98997.84
2023-04-08T05:00:41.657Z,98993.50
2023-04-08T05:03:43.291Z,99001.53
2023-04-08T05:06:45.312Z,98993.53
2023-04-08T05:09:46.942Z,98994.53
2023-04-08T05:12:48.714Z,98997.13
2023-04-08T05:15:51.767Z,98992.78
2023-04-08T05:18:53.433Z,98993.66
2023-04-08T05:21:55.515Z,98998.88
2023-04-08T05:24:57.121Z,99002.38
2023-04-08T05:27:58.806Z,98996.16
2023-04-08T05:31:01.890Z,99003.38
2023-04-08T05:34:03.632Z,99006.03
2023-04-08T05:37:05.270Z,99022.59
2023-04-08T05:40:07.572Z,99019.06
2023-04-08T05:43:09.138Z,99017.34
2023-04-08T05:46:12.223Z,99015.69
2023-04-08T05:49:14.029Z,99025.41
2023-04-08T05:52:16.672Z,99032.47
2023-04-08T05:55:18.321Z,99033.38
2023-04-08T06:01:42.380Z,99030.72
2023-04-08T06:04:44.387Z,99034.34
2023-04-08T06:07:46.424Z,99042.13
2023-04-08T06:10:51.124Z,99050.94
2023-04-08T06:13:52.915Z,99056.31
2023-04-08T06:16:57.337Z,99062.56
2023-04-08T06:20:01.151Z,99057.13
2023-04-08T06:23:03.166Z,99063.34
2023-04-08T06:26:05.360Z,99054.56
2023-04-08T06:29:08.066Z,99071.25
2023-04-08T06:32:11.489Z,99071.22
2023-04-08T06:35:13.163Z,99066.75
2023-04-08T06:38:14.844Z,99063.06
2023-04-08T06:41:16.507Z,99068.34
2023-04-08T06:44:18.280Z,99075.28
2023-04-08T06:47:21.462Z,99071.75
2023-04-08T06:50:23.156Z,99076.88
2023-04-08T06:53:25.018Z,99083.13
2023-04-08T06:56:26.733Z,99084.91
2023-04-08T06:59:28.416Z,99089.44
2023-04-08T07:02:31.685Z,99093.94
2023-04-08T07:05:35.641Z,99087.88
2023-04-08T07:08:37.649Z,99097.50
2023-04-08T07:11:39.371Z,99098.34
2023-04-08T07:14:41.130Z,99100.03
2023-04-08T07:17:44.122Z,99101.72
2023-04-08T07:20:46.516Z,99110.47
2023-04-08T07:23:48.131Z,99113.13
2023-04-08T07:26:49.805Z,99112.13
2023-04-08T07:29:53.219Z,99111.16
2023-04-08T07:32:59.315Z,99116.56
2023-04-08T07:36:02.316Z,99113.91
2023-04-08T07:39:04.028Z,99111.06
2023-04-08T07:42:06.159Z,99125.94
2023-04-08T07:45:08.376Z,99119.72
2023-04-08T07:48:11.421Z,99130.47
2023-04-08T07:51:13.302Z,99125.03
2023-04-08T07:54:17.531Z,99130.16
2023-04-08T07:57:44.570Z,99130.06
2023-04-08T08:00:46.568Z,99136.34
2023-04-08T08:03:50.104Z,99132.88
2023-04-08T08:06:52.059Z,99137.47
2023-04-08T08:09:53.704Z,99140.13
2023-04-08T08:12:55.494Z,99149.81
2023-04-08T08:15:57.271Z,99150.81
2023-04-08T08:19:00.567Z,99153.28
2023-04-08T08:22:02.172Z,99152.41
2023-04-08T08:25:04.590Z,99141.78
2023-04-08T08:28:06.506Z,99138.28
2023-04-08T08:31:08.777Z,99148.72
2023-04-08T08:34:11.857Z,99160.09
2023-04-08T08:37:13.658Z,99159.22
2023-04-08T08:40:15.959Z,99169.78
2023-04-08T08:43:18.775Z,99159.34
2023-04-08T08:46:20.439Z,99161.16
2023-04-08T08:49:24.182Z,99155.63
2023-04-08T08:52:25.975Z,99158.09
2023-04-08T08:55:50.260Z,99165.31
2023-04-08T08:58:51.761Z,99172.47
2023-04-08T09:01:53.570Z,99174.22
2023-04-08T09:05:01.376Z,99180.16
2023-04-08T09:08:03.106Z,99180.88
2023-04-08T09:11:12.497Z,99178.44
2023-04-08T09:14:18.087Z,99179.44
2023-04-08T09:17:32.287Z,99185.34
2023-04-08T09:20:52.350Z,99184.59
2023-04-08T09:23:54.855Z,99195.91
2023-04-08T09:26:57.258Z,99196.63
2023-04-08T09:30:12.757Z,99207.13
2023-04-08T09:33:14.293Z,99216.84
2023-04-08T09:36:17.527Z,99212.16
2023-04-08T09:39:19.517Z,99207.53
2023-04-08T09:42:21.402Z,99209.94
2023-04-08T09:45:24.632Z,99219.69
2023-04-08T09:48:28.198Z,99214.38
2023-04-08T09:51:33.582Z,99216.75
2023-04-08T09:54:41.147Z,99214.25
2023-04-08T09:57:45.112Z,99218.06
2023-04-08T10:00:50.762Z,99217.22
2023-04-08T10:03:54.453Z,99216.16
2023-04-08T10:07:03.506Z,99223.88
2023-04-08T10:10:05.954Z,99228.25
2023-04-08T10:13:07.846Z,99222.81
2023-04-08T10:16:20.979Z,99219.97
2023-04-08T10:19:41.949Z,99227.94
2023-04-08T10:22:49.223Z,99221.88
2023-04-08T10:25:50.921Z,99228.22
2023-04-08T10:28:54.991Z,99226.53
2023-04-08T10:31:57.817Z,99231.84
2023-04-08T10:34:59.487Z,99227.41
2023-04-08T10:38:02.775Z,99238.00
2023-04-08T10:41:04.440Z,99239.09
2023-04-08T10:44:15.428Z,99230.97
2023-04-08T10:47:25.209Z,99231.00
2023-04-08T10:50:27.154Z,99239.09
2023-04-08T10:53:30.970Z,99230.06
2023-04-08T10:56:32.690Z,99235.22
2023-04-08T10:59:37.841Z,99234.38
2023-04-08T11:02:39.711Z,99237.88
2023-04-08T11:05:41.724Z,99235.03
2023-04-08T11:08:44.892Z,99234.13
2023-04-08T11:11:47.373Z,99230.25
2023-04-08T11:14:51.684Z,99231.06
2023-04-08T11:17:55.069Z,99233.19
2023-04-08T11:20:58.943Z,99218.47
2023-04-08T11:24:06.251Z,99228.75
2023-04-08T11:27:07.934Z,99231.59
2023-04-08T11:30:10.619Z,99232.47
2023-04-08T11:33:13.835Z,99237.00
2023-04-08T11:36:18.022Z,99238.78
2023-04-08T11:39:24.183Z,99241.25
2023-04-08T11:42:29.077Z,99241.25
2023-04-08T11:45:37.906Z,99234.09
2023-04-08T11:48:39.706Z,99241.03
2023-04-08T11:51:55.090Z,99243.16
2023-04-08T11:54:58.018Z,99246.56
2023-04-08T11:58:02.189Z,99246.31
2023-04-08T12:01:03.832Z,99251.50
2023-04-08T12:04:06.911Z,99253.22
2023-04-08T12:07:08.713Z,99256.00
2023-04-08T12:10:12.397Z,99255.13
2023-04-08T12:13:14.042Z,99255.88
2023-04-08T12:16:15.675Z,99257.69
2023-04-08T12:19:17.508Z,99263.03
2023-04-08T12:22:19.776Z,99256.72
2023-04-08T12:25:23.070Z,99258.50
2023-04-08T12:28:25.088Z,99261.22
2023-04-08T12:31:28.478Z,99267.25
2023-04-08T12:34:30.336Z,99266.47
2023-04-08T12:37:33.245Z,99260.44
2023-04-08T12:40:36.305Z,99263.16
2023-04-08T12:43:39.060Z,99267.47
2023-04-08T12:46:40.879Z,99262.06
2023-04-08T12:49:49.211Z,99265.47
2023-04-08T12:52:52.043Z,99263.50
2023-04-08T12:55:57.413Z,99262.72
2023-04-08T12:58:59.913Z,99270.78
2023-04-08T13:02:05.258Z,99259.16
2023-04-08T13:05:07.135Z,99250.16
2023-04-08T13:08:08.854Z,99250.97
2023-04-08T13:11:11.857Z,99241.13
2023-04-08T13:14:14.082Z,99250.75
2023-04-08T13:17:16.096Z,99255.78
2023-04-08T13:20:17.872Z,99259.28
2023-04-08T13:23:19.550Z,99255.59
2023-04-08T13:26:22.514Z,99247.75
2023-04-08T13:29:24.353Z,99251.34
2023-04-08T13:32:26.106Z,99247.72
2023-04-08T13:35:28.083Z,99256.31
2023-04-08T13:38:29.824Z,99247.13
2023-04-08T13:41:34.085Z,99253.25
2023-04-08T13:44:35.708Z,99252.38
2023-04-08T13:47:38.107Z,99254.19
2023-04-08T13:50:40.731Z,99252.31
2023-04-08T13:53:42.197Z,99256.69
2023-04-08T13:56:45.559Z,99262.28
2023-04-08T13:59:47.232Z,99254.22
2023-04-08T14:02:50.265Z,99254.53
2023-04-08T14:05:52.391Z,99248.66
2023-04-08T14:08:54.387Z,99252.06
2023-04-08T14:11:58.187Z,99252.00
2023-04-08T14:14:59.795Z,99250.25
2023-04-08T14:18:01.748Z,99256.38
2023-04-08T14:21:04.097Z,99249.91
2023-04-08T14:24:06.549Z,99253.31
2023-04-08T14:27:09.599Z,99257.47
2023-04-08T14:30:11.445Z,99255.63
2023-04-08T14:33:13.180Z,99257.25
2023-04-08T14:36:14.807Z,99257.00
2023-04-08T14:39:16.584Z,99262.22
2023-04-08T14:45:33.385Z,99259.31
2023-04-08T14:48:37.679Z,99268.94
2023-04-08T14:51:39.677Z,99262.75
2023-04-08T14:54:41.715Z,99265.75
2023-04-08T14:57:43.482Z,99266.47
2023-04-08T15:00:47.812Z,99268.16
2023-04-08T15:03:49.542Z,99273.28
2023-04-08T15:06:51.641Z,99270.47
2023-04-08T15:09:54.395Z,99269.41
2023-04-08T15:12:56.190Z,99269.28
2023-04-08T15:15:59.217Z,99273.41
2023-04-08T15:19:00.717Z,99276.97
2023-04-08T15:22:02.268Z,99273.53
2023-04-08T15:25:05.152Z,99274.50
2023-04-08T15:28:06.818Z,99283.34
2023-04-08T15:31:09.940Z,99269.38
2023-04-08T15:34:11.417Z,99281.78
2023-04-08T15:37:13.368Z,99280.78
2023-04-08T15:40:15.086Z,99274.59
2023-04-08T15:43:17.907Z,99286.09
2023-04-08T15:46:21.457Z,99286.03
2023-04-08T15:49:23.176Z,99279.00
2023-04-08T15:52:25.928Z,99283.44
2023-04-08T15:55:32.850Z,99279.25
2023-04-08T15:58:34.709Z,99285.47
2023-04-08T16:01:37.814Z,99287.22
2023-04-08T16:04:39.534Z,99287.50
2023-04-08T16:07:42.265Z,99287.84
2023-04-08T16:10:46.080Z,99287.06
2023-04-08T16:13:47.707Z,99296.91
2023-04-08T16:16:53.109Z,99295.44
2023-04-08T16:19:54.628Z,99299.91
2023-04-08T16:22:56.379Z,99300.63
2023-04-08T16:26:01.702Z,99301.44
2023-04-08T16:29:03.746Z,99311.19
2023-04-08T16:32:06.699Z,99308.47
2023-04-08T16:35:08.949Z,99306.72
2023-04-08T16:38:12.208Z,99309.56
2023-04-08T16:41:13.968Z,99312.22
2023-04-08T16:44:16.093Z,99311.41
2023-04-08T16:47:19.005Z,99311.59
2023-04-08T16:50:20.679Z,99311.59
2023-04-08T16:53:24.054Z,99316.94
2023-04-08T16:56:27.213Z,99317.81
2023-04-08T16:59:29.354Z,99323.16
2023-04-08T17:02:32.517Z,99321.38
2023-04-08T17:05:34.249Z,99327.47
2023-04-08T17:08:36.448Z,99319.47
2023-04-08T17:11:38.550Z,99326.56
2023-04-08T17:14:40.668Z,99327.59
2023-04-08T17:17:43.813Z,99335.59
2023-04-08T17:20:45.452Z,99331.31
2023-04-08T17:23:47.053Z,99334.91
2023-04-08T17:26:49.401Z,99330.56
2023-04-08T17:29:56.431Z,99332.38
2023-04-08T17:32:59.335Z,99343.06
2023-04-08T17:36:01.523Z,99346.63
2023-04-08T17:39:03.266Z,99342.28
2023-04-08T17:42:04.899Z,99343.25
2023-04-08T17:45:07.375Z,99347.75
2023-04-08T17:48:10.463Z,99348.66
2023-04-08T17:51:12.089Z,99349.75
2023-04-08T17:54:13.981Z,99355.94
2023-04-08T17:57:16.108Z,99356.03
2023-04-08T18:00:18.293Z,99363.16
2023-04-08T18:03:21.570Z,99365.00
2023-04-08T18:06:23.307Z,99365.03
2023-04-08T18:09:24.921Z,99370.31
2023-04-08T18:12:27.788Z,99370.38
2023-04-08T18:15:30.749Z,99377.47
2023-04-08T18:18:36.593Z,99378.41
2023-04-08T18:21:38.214Z,99382.84
2023-04-08T18:24:39.800Z,99382.84
2023-04-08T18:27:41.362Z,99384.59
2023-04-08T18:30:43.341Z,99377.53
2023-04-08T18:33:46.522Z,99380.22
2023-04-08T18:36:48.223Z,99375.28
2023-04-08T18:39:50.075Z,99370.19
2023-04-08T18:42:52.077Z,99375.63
2023-04-08T18:45:53.592Z,99371.34
2023-04-08T18:48:57.181Z,99374.06
2023-04-08T18:52:03.022Z,99376.88
2023-04-08T18:55:05.805Z,99381.41
2023-04-08T18:58:07.827Z,99389.41
2023-04-08T19:01:09.552Z,99385.94
2023-04-08T19:04:13.256Z,99386.00
2023-04-08T19:07:16.801Z,99388.69
2023-04-08T19:10:18.394Z,99389.72
2023-04-08T19:13:22.222Z,99396.81
2023-04-08T19:16:24.006Z,99396.91
2023-04-08T19:19:27.067Z,99396.94
2023-04-08T19:22:28.670Z,99392.59
2023-04-08T19:25:30.896Z,99392.66
2023-04-08T19:28:33.377Z,99392.78
2023-04-08T19:31:35.009Z,99398.06
2023-04-08T19:34:38.686Z,99399.84
2023-04-08T19:37:40.540Z,99398.97
2023-04-08T19:40:45.350Z,99391.00
2023-04-08T19:43:47.747Z,99392.78
2023-04-08T19:46:49.606Z,99391.91
2023-04-08T19:49:52.682Z,99401.56
2023-04-08T19:52:54.502Z,99397.16
2023-04-08T19:56:00.119Z,99398.91
2023-04-08T19:59:02.046Z,99399.84
2023-04-08T20:02:04.222Z,99398.97
2023-04-08T20:05:07.883Z,99406.09
2023-04-08T20:08:09.527Z,99411.44
2023-04-08T20:11:11.226Z,99414.09
2023-04-08T20:14:13.243Z,99413.25
2023-04-08T20:17:16.432Z,99408.06
2023-04-08T20:20:19.679Z,99405.44
2023-04-08T20:23:21.925Z,99404.59
2023-04-08T20:26:23.528Z,99410.81
2023-04-08T20:29:25.131Z,99418.88
2023-04-08T20:32:27.947Z,99412.81
2023-04-08T20:35:34.022Z,99415.44
2023-04-08T20:38:36.974Z,99414.53
2023-04-08T20:41:38.763Z,99411.88
2023-04-08T20:44:40.783Z,99413.69
2023-04-08T20:47:44.598Z,99410.19
2023-04-08T20:50:49.294Z,99413.69
2023-04-08T20:53:50.794Z,99411.94
2023-04-08T20:56:52.488Z,99411.03
2023-04-08T20:59:54.122Z,99408.44
2023-04-08T21:02:55.863Z,99410.25
2023-04-08T21:05:58.941Z,99408.53
2023-04-08T21:09:00.951Z,99411.22
2023-04-08T21:12:03.135Z,99418.28
2023-04-08T21:15:05.134Z,99421.78
2023-04-08T21:18:07.343Z,99416.53
2023-04-08T21:21:19.606Z,99413.84
2023-04-08T21:24:21.507Z,99416.50
2023-04-08T21:27:23.122Z,99417.41
2023-04-08T21:30:24.828Z,99422.75
2023-04-08T21:33:26.691Z,99418.41
2023-04-08T21:36:30.822Z,99417.53
2023-04-08T21:39:32.346Z,99414.88
2023-04-08T21:42:33.969Z,99417.53
2023-04-08T21:45:35.738Z,99421.91
2023-04-08T21:48:37.522Z,99418.41
2023-04-08T21:51:41.031Z,99428.03
2023-04-08T21:54:43.777Z,99420.97
2023-04-08T21:57:45.760Z,99414.84
2023-04-08T22:00:47.523Z,99418.38
2023-04-08T22:03:49.802Z,99415.75
2023-04-08T22:06:52.905Z,99417.53
2023-04-08T22:09:54.629Z,99414.00
2023-04-08T22:12:56.543Z,99414.00
2023-04-08T22:15:58.288Z,99421.06
2023-04-08T22:18:59.965Z,99414.94
2023-04-08T22:22:02.963Z,99419.34
2023-04-08T22:25:04.911Z,99422.00
2023-04-08T22:28:06.896Z,99424.69
2023-04-08T22:31:09.076Z,99419.41
2023-04-08T22:34:11.500Z,99418.50
2023-04-08T22:37:15.033Z,99416.66
2023-04-08T22:40:16.871Z,99420.16
2023-04-08T22:43:18.711Z,99421.84
2023-04-08T22:46:22.312Z,99417.44
2023-04-08T22:49:23.851Z,99413.03
2023-04-08T22:52:27.042Z,99414.81
2023-04-08T22:55:28.794Z,99410.47
2023-04-08T22:58:31.220Z,99409.59
2023-04-08T23:01:41.018Z,99415.75
2023-04-08T23:04:42.586Z,99419.22
2023-04-08T23:07:45.686Z,99409.50
2023-04-08T23:10:48.367Z,99416.47
2023-04-08T23:13:49.998Z,99417.34
2023-04-08T23:16:54.150Z,99416.44
2023-04-08T23:19:55.771Z,99413.81
2023-04-08T23:22:58.993Z,99415.59
2023-04-08T23:26:00.566Z,99407.72
2023-04-08T23:29:02.134Z,99405.97
2023-04-08T23:32:03.850Z,99401.56
2023-04-08T23:35:05.804Z,99406.03
2023-04-08T23:38:09.000Z,99408.72
2023-04-08T23:41:14.405Z,99409.59
2023-04-08T23:44:16.021Z,99407.91
2023-04-08T23:47:17.621Z,99414.09
2023-04-08T23:50:20.313Z,99408.84
2023-04-08T23:53:23.179Z,99413.22
2023-04-08T23:56:24.803Z,99409.72
2023-04-08T23:59:26.449Z,99399.22
